createdAt,value
2018-10-01T00:00:19.984Z,12.59
2018-10-01T00:01:28.082Z,12.49
2018-10-01T00:02:36.099Z,12.52
2018-10-01T00:03:44.160Z,12.62
2018-10-01T00:04:52.272Z,12.64
2018-10-01T00:06:00.293Z,12.54
2018-10-01T00:07:08.370Z,12.62
2018-10-01T00:08:16.428Z,12.54
2018-10-01T00:09:24.488Z,12.49
2018-10-01T00:10:32.542Z,12.54
2018-10-01T00:11:40.630Z,12.49
2018-10-01T00:12:48.692Z,12.54
2018-10-01T00:13:56.770Z,12.54
2018-10-01T00:15:04.823Z,12.57
2018-10-01T00:16:12.857Z,12.53
2018-10-01T00:17:20.960Z,12.54
2018-10-01T00:18:29.021Z,12.53
2018-10-01T00:19:37.076Z,12.62
2018-10-01T00:20:45.149Z,12.54
2018-10-01T00:21:53.193Z,12.53
2018-10-01T00:23:01.286Z,12.54
2018-10-01T00:24:09.338Z,12.52
2018-10-01T00:25:17.400Z,12.49
2018-10-01T00:26:25.467Z,12.53
2018-10-01T00:27:33.541Z,12.53
2018-10-01T00:28:41.588Z,12.41
2018-10-01T00:29:49.683Z,12.45
2018-10-01T00:30:57.728Z,12.42
2018-10-01T00:32:05.793Z,12.42
2018-10-01T00:33:13.874Z,12.47
2018-10-01T00:34:21.937Z,12.37
2018-10-01T00:35:29.995Z,12.27
2018-10-01T00:36:38.057Z,12.29
2018-10-01T00:37:46.129Z,12.28
2018-10-01T00:38:54.192Z,12.28
2018-10-01T00:40:02.267Z,12.41
2018-10-01T00:41:10.326Z,12.38
2018-10-01T00:42:18.382Z,12.28
2018-10-01T00:43:26.434Z,12.28
2018-10-01T00:44:34.508Z,12.24
2018-10-01T00:45:42.561Z,12.27
2018-10-01T00:46:50.649Z,12.29
2018-10-01T00:47:58.707Z,12.31
2018-10-01T00:49:06.774Z,12.34
2018-10-01T00:50:14.844Z,12.28
2018-10-01T00:51:22.891Z,12.27
2018-10-01T00:52:30.994Z,12.31
2018-10-01T00:53:39.023Z,12.31
2018-10-01T00:54:47.104Z,12.28
2018-10-01T00:55:55.154Z,12.31
2018-10-01T00:57:03.205Z,12.24
2018-10-01T00:58:11.271Z,12.39
2018-10-01T00:59:19.359Z,12.28
2018-10-01T01:00:27.402Z,12.28
2018-10-01T01:01:35.487Z,12.28
2018-10-01T01:02:43.553Z,12.41
2018-10-01T01:03:51.595Z,12.42
2018-10-01T01:04:59.680Z,12.38
2018-10-01T01:06:07.738Z,12.39
2018-10-01T01:07:15.806Z,12.41
2018-10-01T01:08:23.877Z,12.29
2018-10-01T01:09:31.940Z,12.38
2018-10-01T01:10:39.986Z,12.29
2018-10-01T01:11:48.082Z,12.31
2018-10-01T01:12:56.122Z,12.41
2018-10-01T01:14:04.185Z,12.27
2018-10-01T01:15:12.255Z,12.39
2018-10-01T01:16:20.315Z,12.32
2018-10-01T01:17:28.383Z,12.21
2018-10-01T01:18:36.449Z,12.23
2018-10-01T01:19:44.520Z,12.39
2018-10-01T01:20:52.579Z,12.29
2018-10-01T01:22:00.641Z,12.34
2018-10-01T01:23:08.733Z,12.29
2018-10-01T01:24:16.779Z,12.35
2018-10-01T01:25:24.832Z,12.39
2018-10-01T01:26:32.895Z,12.39
2018-10-01T01:27:40.973Z,12.28
2018-10-01T01:28:49.033Z,12.41
2018-10-01T01:29:57.122Z,12.31
2018-10-01T01:31:05.164Z,12.27
2018-10-01T01:32:13.201Z,12.29
2018-10-01T01:33:21.308Z,12.32
2018-10-01T01:34:29.384Z,12.27
2018-10-01T01:35:37.426Z,12.29
2018-10-01T01:36:45.483Z,12.29
2018-10-01T01:37:53.559Z,12.19
2018-10-01T01:39:01.648Z,12.20
2018-10-01T01:40:09.676Z,12.20
2018-10-01T01:41:17.745Z,12.14
2018-10-01T01:42:25.828Z,12.23
2018-10-01T01:43:33.869Z,12.14
2018-10-01T01:44:41.941Z,12.16
2018-10-01T01:45:50.014Z,12.07
2018-10-01T01:46:58.063Z,12.10
2018-10-01T01:48:06.136Z,12.10
2018-10-01T01:49:14.207Z,12.04
2018-10-01T01:50:22.445Z,12.07
2018-10-01T01:51:30.368Z,12.12
2018-10-01T01:52:38.409Z,12.05
2018-10-01T01:53:46.493Z,12.10
2018-10-01T01:54:54.532Z,12.16
2018-10-01T01:56:02.608Z,12.12
2018-10-01T01:57:10.655Z,12.05
2018-10-01T01:58:18.731Z,12.09
2018-10-01T01:59:26.809Z,12.13
2018-10-01T02:00:34.850Z,12.07
2018-10-01T02:01:42.916Z,12.07
2018-10-01T02:02:50.977Z,12.01
2018-10-01T02:03:59.055Z,12.02
2018-10-01T02:05:07.143Z,11.99
2018-10-01T02:06:15.180Z,11.96
2018-10-01T02:07:23.228Z,12.07
2018-10-01T02:08:31.308Z,12.12
2018-10-01T02:09:39.364Z,12.05
2018-10-01T02:10:47.426Z,12.12
2018-10-01T02:11:55.510Z,12.12
2018-10-01T02:13:03.577Z,12.12
2018-10-01T02:14:11.657Z,12.05
2018-10-01T02:15:19.744Z,12.09
2018-10-01T02:16:27.776Z,12.12
2018-10-01T02:17:35.814Z,12.13
2018-10-01T02:18:43.892Z,12.05
2018-10-01T02:19:51.954Z,12.09
2018-10-01T02:21:00.015Z,12.10
2018-10-01T02:22:08.070Z,12.07
2018-10-01T02:23:16.143Z,12.05
2018-10-01T02:24:24.218Z,12.13
2018-10-01T02:25:32.270Z,12.12
2018-10-01T02:26:40.352Z,12.05
2018-10-01T02:27:48.419Z,12.14
2018-10-01T02:28:56.470Z,12.10
2018-10-01T02:30:04.558Z,12.09
2018-10-01T02:31:12.609Z,12.10
2018-10-01T02:32:20.664Z,12.07
2018-10-01T02:33:28.736Z,12.04
2018-10-01T02:34:36.820Z,11.99
2018-10-01T02:35:44.872Z,11.95
2018-10-01T02:36:52.940Z,12.01
2018-10-01T02:38:01.013Z,12.02
2018-10-01T02:39:09.077Z,11.95
2018-10-01T02:40:17.115Z,11.83
2018-10-01T02:41:25.177Z,11.76
2018-10-01T02:42:33.228Z,11.73
2018-10-01T02:43:41.346Z,11.69
2018-10-01T02:44:49.369Z,11.70
2018-10-01T02:45:57.463Z,11.64
2018-10-01T02:47:05.505Z,11.65
2018-10-01T02:48:13.570Z,11.55
2018-10-01T02:49:21.643Z,11.57
2018-10-01T02:50:29.697Z,11.57
2018-10-01T02:51:37.766Z,11.49
2018-10-01T02:52:45.855Z,11.57
2018-10-01T02:53:53.896Z,11.55
2018-10-01T02:55:01.968Z,11.54
2018-10-01T02:56:10.044Z,11.44
2018-10-01T02:57:18.093Z,11.40
2018-10-01T02:58:26.151Z,11.40
2018-10-01T02:59:34.217Z,11.36
2018-10-01T03:00:42.288Z,11.39
2018-10-01T03:01:50.349Z,11.29
2018-10-01T03:02:58.431Z,11.40
2018-10-01T03:04:06.498Z,11.27
2018-10-01T03:05:14.546Z,11.29
2018-10-01T03:06:22.626Z,11.28
2018-10-01T03:07:30.680Z,11.33
2018-10-01T03:08:38.754Z,11.24
2018-10-01T03:09:46.793Z,11.28
2018-10-01T03:10:54.882Z,11.25
2018-10-01T03:12:02.927Z,11.28
2018-10-01T03:13:10.986Z,11.22
2018-10-01T03:14:19.054Z,11.22
2018-10-01T03:15:27.122Z,11.18
2018-10-01T03:16:35.172Z,11.03
2018-10-01T03:17:43.246Z,11.10
2018-10-01T03:18:51.306Z,11.10
2018-10-01T03:19:59.381Z,11.04
2018-10-01T03:21:07.499Z,11.03
2018-10-01T03:22:15.493Z,10.97
2018-10-01T03:23:23.563Z,10.94
2018-10-01T03:24:31.646Z,10.86
2018-10-01T03:25:39.711Z,10.91
2018-10-01T03:26:47.755Z,10.91
2018-10-01T03:27:55.839Z,10.85
2018-10-01T03:29:03.894Z,10.81
2018-10-01T03:30:11.951Z,10.78
2018-10-01T03:31:20.022Z,10.85
2018-10-01T03:32:28.091Z,10.81
2018-10-01T03:33:36.148Z,10.89
2018-10-01T03:34:44.190Z,10.81
2018-10-01T03:35:52.285Z,10.84
2018-10-01T03:37:00.343Z,10.78
2018-10-01T03:38:08.439Z,10.82
2018-10-01T03:39:16.458Z,10.81
2018-10-01T03:40:24.548Z,10.79
2018-10-01T03:41:32.575Z,10.82
2018-10-01T03:42:40.653Z,10.76
2018-10-01T03:43:48.745Z,10.66
2018-10-01T03:44:56.792Z,10.68
2018-10-01T03:46:04.862Z,10.68
2018-10-01T03:47:12.913Z,10.78
2018-10-01T03:48:20.965Z,10.68
2018-10-01T03:49:29.049Z,10.79
2018-10-01T03:50:37.111Z,10.73
2018-10-01T03:51:45.164Z,10.81
2018-10-01T03:52:53.220Z,10.67
2018-10-01T03:54:01.302Z,10.68
2018-10-01T03:55:09.365Z,10.74
2018-10-01T03:56:17.439Z,10.79
2018-10-01T03:57:25.483Z,10.71
2018-10-01T03:58:33.549Z,10.63
2018-10-01T03:59:41.640Z,10.70
2018-10-01T04:00:49.681Z,10.64
2018-10-01T04:01:57.749Z,10.67
2018-10-01T04:03:05.837Z,10.66
2018-10-01T04:04:14.264Z,10.59
2018-10-01T04:05:21.917Z,10.59
2018-10-01T04:06:29.983Z,10.67
2018-10-01T04:07:38.053Z,10.63
2018-10-01T04:08:46.191Z,10.66
2018-10-01T04:09:54.870Z,10.64
2018-10-01T04:11:02.924Z,10.52
2018-10-01T04:12:10.315Z,10.66
2018-10-01T04:13:18.380Z,10.61
2018-10-01T04:14:26.429Z,10.59
2018-10-01T04:15:35.077Z,10.52
2018-10-01T04:16:42.548Z,10.64
2018-10-01T04:17:50.635Z,10.61
2018-10-01T04:18:58.699Z,10.66
2018-10-01T04:20:06.762Z,10.66
2018-10-01T04:21:14.823Z,10.67
2018-10-01T04:22:22.867Z,10.66
2018-10-01T04:23:30.935Z,10.63
2018-10-01T04:24:39.002Z,10.56
2018-10-01T04:25:47.062Z,10.53
2018-10-01T04:26:55.125Z,10.59
2018-10-01T04:28:03.909Z,10.53
2018-10-01T04:29:11.283Z,10.55
2018-10-01T04:30:19.336Z,10.53
2018-10-01T04:31:27.408Z,10.53
2018-10-01T04:32:35.456Z,10.51
2018-10-01T04:33:43.532Z,10.44
2018-10-01T04:34:51.569Z,10.47
2018-10-01T04:35:59.646Z,10.47
2018-10-01T04:37:07.701Z,10.45
2018-10-01T04:38:15.776Z,10.34
2018-10-01T04:39:23.826Z,10.45
2018-10-01T04:40:31.929Z,10.36
2018-10-01T04:41:39.977Z,10.38
2018-10-01T04:42:48.043Z,10.32
2018-10-01T04:43:56.083Z,10.30
2018-10-01T04:45:04.168Z,10.30
2018-10-01T04:46:12.219Z,10.32
2018-10-01T04:47:20.285Z,10.40
2018-10-01T04:48:28.349Z,10.41
2018-10-01T04:49:36.556Z,10.29
2018-10-01T04:50:44.506Z,10.22
2018-10-01T04:51:52.590Z,10.20
2018-10-01T04:53:00.607Z,10.18
2018-10-01T04:54:08.652Z,10.29
2018-10-01T04:55:16.716Z,10.18
2018-10-01T04:56:24.787Z,10.20
2018-10-01T04:57:32.837Z,10.23
2018-10-01T04:58:41.117Z,10.20
2018-10-01T04:59:48.970Z,10.22
2018-10-01T05:00:57.050Z,10.17
2018-10-01T05:02:05.111Z,10.26
2018-10-01T05:03:13.159Z,10.27
2018-10-01T05:04:21.236Z,10.27
2018-10-01T05:05:29.294Z,10.17
2018-10-01T05:06:37.610Z,10.17
2018-10-01T05:07:45.449Z,10.23
2018-10-01T05:08:53.465Z,10.15
2018-10-01T05:10:01.560Z,10.15
2018-10-01T05:11:09.620Z,10.18
2018-10-01T05:12:17.683Z,10.23
2018-10-01T05:13:25.743Z,10.11
2018-10-01T05:14:33.813Z,10.11
2018-10-01T05:15:41.868Z,10.15
2018-10-01T05:16:49.930Z,10.12
2018-10-01T05:17:58.001Z,10.07
2018-10-01T05:19:06.058Z,10.11
2018-10-01T05:20:14.117Z,10.09
2018-10-01T05:21:22.203Z,10.09
2018-10-01T05:22:30.248Z,9.97
2018-10-01T05:23:38.312Z,9.96
2018-10-01T05:24:46.371Z,10.08
2018-10-01T05:25:54.453Z,10.02
2018-10-01T05:27:02.578Z,9.94
2018-10-01T05:28:10.579Z,9.93
2018-10-01T05:29:18.652Z,9.90
2018-10-01T05:30:26.694Z,9.94
2018-10-01T05:31:34.781Z,9.91
2018-10-01T05:32:42.817Z,9.90
2018-10-01T05:33:50.886Z,9.81
2018-10-01T05:34:58.949Z,9.84
2018-10-01T05:36:07.024Z,9.86
2018-10-01T05:37:15.058Z,9.84
2018-10-01T05:38:23.151Z,9.78
2018-10-01T05:39:31.225Z,9.79
2018-10-01T05:40:39.278Z,9.75
2018-10-01T05:41:47.343Z,9.79
2018-10-01T05:42:55.407Z,9.74
2018-10-01T05:44:03.454Z,9.79
2018-10-01T05:45:11.538Z,9.76
2018-10-01T05:46:19.582Z,9.72
2018-10-01T05:47:27.674Z,9.72
2018-10-01T05:48:35.723Z,9.72
2018-10-01T05:49:43.797Z,9.66
2018-10-01T05:50:51.836Z,9.65
2018-10-01T05:51:59.916Z,9.68
2018-10-01T05:53:07.983Z,9.60
2018-10-01T05:54:16.045Z,9.56
2018-10-01T05:55:24.120Z,9.54
2018-10-01T05:56:32.173Z,9.57
2018-10-01T05:57:40.321Z,9.60
2018-10-01T05:58:48.304Z,9.61
2018-10-01T05:59:56.358Z,9.58
2018-10-01T06:01:04.433Z,9.64
2018-10-01T06:02:12.488Z,9.57
2018-10-01T06:03:20.555Z,9.51
2018-10-01T06:04:28.621Z,9.46
2018-10-01T06:05:36.697Z,9.56
2018-10-01T06:06:44.750Z,9.54
2018-10-01T06:07:52.819Z,9.46
2018-10-01T06:09:00.874Z,9.43
2018-10-01T06:10:08.972Z,9.50
2018-10-01T06:11:16.985Z,9.42
2018-10-01T06:12:25.069Z,9.46
2018-10-01T06:13:33.105Z,9.40
2018-10-01T06:14:41.182Z,9.42
2018-10-01T06:15:49.271Z,9.50
2018-10-01T06:16:57.331Z,9.51
2018-10-01T06:18:05.378Z,9.46
2018-10-01T06:19:13.437Z,9.46
2018-10-01T06:20:21.542Z,9.42
2018-10-01T06:21:29.573Z,9.31
2018-10-01T06:22:37.636Z,9.35
2018-10-01T06:23:45.702Z,9.36
2018-10-01T06:24:53.745Z,9.36
2018-10-01T06:26:01.845Z,9.33
2018-10-01T06:27:09.894Z,9.35
2018-10-01T06:28:17.968Z,9.33
2018-10-01T06:29:26.001Z,9.36
2018-10-01T06:30:34.074Z,9.32
2018-10-01T06:31:42.142Z,9.32
2018-10-01T06:32:50.191Z,9.33
2018-10-01T06:33:58.278Z,9.32
2018-10-01T06:35:06.327Z,9.33
2018-10-01T06:36:14.506Z,9.32
2018-10-01T06:37:22.450Z,9.36
2018-10-01T06:38:30.539Z,9.39
2018-10-01T06:39:38.588Z,9.32
2018-10-01T06:40:46.667Z,9.38
2018-10-01T06:41:54.859Z,9.40
2018-10-01T06:43:02.782Z,9.32
2018-10-01T06:44:10.855Z,9.32
2018-10-01T06:45:18.903Z,9.32
2018-10-01T06:46:26.976Z,9.40
2018-10-01T06:47:35.059Z,9.35
2018-10-01T06:48:43.089Z,9.31
2018-10-01T06:49:51.165Z,9.35
2018-10-01T06:50:59.359Z,9.33
2018-10-01T06:52:07.305Z,9.33
2018-10-01T06:53:16.071Z,9.33
2018-10-01T06:54:23.417Z,9.32
2018-10-01T06:55:31.492Z,9.31
2018-10-01T06:56:39.566Z,9.35
2018-10-01T06:57:47.628Z,9.32
2018-10-01T06:58:55.703Z,9.32
2018-10-01T07:00:03.750Z,9.38
2018-10-01T07:01:11.885Z,9.33
2018-10-01T07:02:19.879Z,9.36
2018-10-01T07:03:27.937Z,9.36
2018-10-01T07:04:36.020Z,9.31
2018-10-01T07:05:44.163Z,9.39
2018-10-01T07:06:52.140Z,9.38
2018-10-01T07:08:00.206Z,9.51
2018-10-01T07:09:08.262Z,9.48
2018-10-01T07:10:16.336Z,9.43
2018-10-01T07:11:24.530Z,9.48
2018-10-01T07:12:32.445Z,9.56
2018-10-01T07:13:40.507Z,9.57
2018-10-01T07:14:48.583Z,9.58
2018-10-01T07:15:56.651Z,9.53
2018-10-01T07:17:04.838Z,9.56
2018-10-01T07:18:12.779Z,9.54
2018-10-01T07:19:20.824Z,9.56
2018-10-01T07:20:28.902Z,9.57
2018-10-01T07:21:36.949Z,9.50
2018-10-01T07:22:45.052Z,9.57
2018-10-01T07:23:53.085Z,9.46
2018-10-01T07:25:01.169Z,9.53
2018-10-01T07:26:09.277Z,9.48
2018-10-01T07:27:17.272Z,9.57
2018-10-01T07:28:25.398Z,9.56
2018-10-01T07:29:33.419Z,9.58
2018-10-01T07:30:41.515Z,9.56
2018-10-01T07:31:49.542Z,9.56
2018-10-01T07:32:57.606Z,9.66
2018-10-01T07:34:05.684Z,9.71
2018-10-01T07:35:13.752Z,9.58
2018-10-01T07:36:21.789Z,9.71
2018-10-01T07:37:29.861Z,9.66
2018-10-01T07:38:37.924Z,9.71
2018-10-01T07:39:45.973Z,9.65
2018-10-01T07:40:54.053Z,9.66
2018-10-01T07:42:02.134Z,9.68
2018-10-01T07:43:10.188Z,9.68
2018-10-01T07:44:18.260Z,9.71
2018-10-01T07:45:26.339Z,9.79
2018-10-01T07:46:34.413Z,9.76
2018-10-01T07:47:42.448Z,9.84
2018-10-01T07:48:50.538Z,9.89
2018-10-01T07:49:58.583Z,9.89
2018-10-01T07:51:06.753Z,9.81
2018-10-01T07:52:14.692Z,9.86
2018-10-01T07:53:22.829Z,9.81
2018-10-01T07:54:30.834Z,9.84
2018-10-01T07:55:38.895Z,9.97
2018-10-01T07:56:46.984Z,9.96
2018-10-01T07:57:55.048Z,10.05
2018-10-01T07:59:03.083Z,9.99
2018-10-01T08:00:11.284Z,10.02
2018-10-01T08:01:19.217Z,10.01
2018-10-01T08:02:27.297Z,9.94
2018-10-01T08:03:35.361Z,9.96
2018-10-01T08:04:43.410Z,9.96
2018-10-01T08:08:24.777Z,10.08
2018-10-01T08:09:32.958Z,10.09
2018-10-01T08:10:40.889Z,10.12
2018-10-01T08:11:48.958Z,10.14
2018-10-01T08:12:57.082Z,10.25
2018-10-01T08:14:05.160Z,10.29
2018-10-01T08:15:13.139Z,10.27
2018-10-01T08:16:21.236Z,10.27
2018-10-01T08:17:29.370Z,10.30
2018-10-01T08:18:37.363Z,10.36
2018-10-01T08:19:45.416Z,10.36
2018-10-01T08:20:53.474Z,10.42
2018-10-01T08:22:01.563Z,10.55
2018-10-01T08:23:09.612Z,10.55
2018-10-01T08:24:17.679Z,10.55
2018-10-01T08:25:25.747Z,10.55
2018-10-01T08:26:33.969Z,10.53
2018-10-01T08:27:41.892Z,10.51
2018-10-01T08:28:49.951Z,10.61
2018-10-01T08:29:58.137Z,10.66
2018-10-01T08:31:06.073Z,10.70
2018-10-01T08:32:14.185Z,10.78
2018-10-01T08:33:22.203Z,10.78
2018-10-01T08:34:30.254Z,10.85
2018-10-01T08:35:38.355Z,10.74
2018-10-01T08:36:46.402Z,10.91
2018-10-01T08:37:54.509Z,10.99
2018-10-01T08:39:02.588Z,11.06
2018-10-01T08:40:10.599Z,11.09
2018-10-01T08:41:18.725Z,11.14
2018-10-01T08:42:26.743Z,11.09
2018-10-01T08:43:34.849Z,11.14
2018-10-01T08:44:42.835Z,11.14
2018-10-01T08:45:50.977Z,11.09
2018-10-01T08:46:58.987Z,11.21
2018-10-01T08:48:07.057Z,11.22
2018-10-01T08:49:15.138Z,11.33
2018-10-01T08:50:23.174Z,11.24
2018-10-01T08:51:31.257Z,11.25
2018-10-01T08:52:39.360Z,11.28
2018-10-01T08:53:47.370Z,11.33
2018-10-01T08:54:55.482Z,11.39
2018-10-01T08:56:03.549Z,11.37
2018-10-01T08:57:11.592Z,11.44
2018-10-01T08:58:19.651Z,11.36
2018-10-01T08:59:27.764Z,11.40
2018-10-01T09:00:35.803Z,11.28
2018-10-01T09:01:43.851Z,11.27
2018-10-01T09:02:51.939Z,11.24
2018-10-01T09:03:59.989Z,11.29
2018-10-01T09:05:08.073Z,11.40
2018-10-01T09:06:16.132Z,11.35
2018-10-01T09:07:24.186Z,11.44
2018-10-01T09:08:32.311Z,11.49
2018-10-01T09:09:40.569Z,11.52
2018-10-01T09:10:48.385Z,11.49
2018-10-01T09:11:56.452Z,11.54
2018-10-01T09:13:04.513Z,11.54
2018-10-01T09:14:12.623Z,11.51
2018-10-01T09:15:20.641Z,11.57
2018-10-01T09:16:28.710Z,11.60
2018-10-01T09:17:36.871Z,11.58
2018-10-01T09:18:44.851Z,11.61
2018-10-01T09:19:52.921Z,11.65
2018-10-01T09:21:01.024Z,11.61
2018-10-01T09:22:09.075Z,11.60
2018-10-01T09:23:17.163Z,11.65
2018-10-01T09:24:25.174Z,11.69
2018-10-01T09:25:33.239Z,11.73
2018-10-01T09:26:41.353Z,11.65
2018-10-01T09:27:49.380Z,11.69
2018-10-01T09:28:57.472Z,11.70
2018-10-01T09:30:05.523Z,11.83
2018-10-01T09:31:13.577Z,11.79
2018-10-01T09:32:21.668Z,11.85
2018-10-01T09:33:29.721Z,11.80
2018-10-01T09:34:37.775Z,11.83
2018-10-01T09:35:45.870Z,11.94
2018-10-01T09:36:53.891Z,11.85
2018-10-01T09:38:02.010Z,11.78
2018-10-01T09:39:10.052Z,11.78
2018-10-01T09:40:18.135Z,11.83
2018-10-01T09:41:26.196Z,11.83
2018-10-01T09:42:34.244Z,11.75
2018-10-01T09:43:42.320Z,11.78
2018-10-01T09:44:50.383Z,11.78
2018-10-01T09:45:58.458Z,11.73
2018-10-01T09:47:06.526Z,11.65
2018-10-01T09:48:14.584Z,11.65
2018-10-01T09:49:22.671Z,11.65
2018-10-01T09:50:30.746Z,11.58
2018-10-01T09:51:38.794Z,11.55
2018-10-01T09:52:46.870Z,11.52
2018-10-01T09:53:54.932Z,11.55
2018-10-01T09:55:02.978Z,11.54
2018-10-01T09:56:11.164Z,11.55
2018-10-01T09:57:19.105Z,11.58
2018-10-01T09:58:27.260Z,11.60
2018-10-01T09:59:35.253Z,11.55
2018-10-01T10:00:43.308Z,11.54
2018-10-01T10:01:51.380Z,11.47
2018-10-01T10:02:59.437Z,11.54
2018-10-01T10:04:07.595Z,11.52
2018-10-01T10:05:15.576Z,11.47
2018-10-01T10:06:23.644Z,11.47
2018-10-01T10:07:31.721Z,11.54
2018-10-01T10:08:39.869Z,11.47
2018-10-01T10:09:47.851Z,11.49
2018-10-01T10:10:55.911Z,11.49
2018-10-01T10:12:03.996Z,11.55
2018-10-01T10:13:12.068Z,11.58
2018-10-01T10:14:20.161Z,11.61
2018-10-01T10:15:28.183Z,11.47
2018-10-01T10:16:36.279Z,11.57
2018-10-01T10:17:44.317Z,11.54
2018-10-01T10:18:52.390Z,11.54
2018-10-01T10:20:00.488Z,11.58
2018-10-01T10:21:08.510Z,11.52
2018-10-01T10:22:16.677Z,11.62
2018-10-01T10:23:24.650Z,11.62
2018-10-01T10:24:32.703Z,11.64
2018-10-01T10:25:40.793Z,11.70
2018-10-01T10:26:48.847Z,11.61
2018-10-01T10:27:56.951Z,11.67
2018-10-01T10:29:04.985Z,11.64
2018-10-01T10:30:13.038Z,11.62
2018-10-01T10:31:21.136Z,11.58
2018-10-01T10:32:29.238Z,11.47
2018-10-01T10:33:37.247Z,11.52
2018-10-01T10:34:45.278Z,11.49
2018-10-01T10:35:53.377Z,11.47
2018-10-01T10:37:01.461Z,11.46
2018-10-01T10:38:09.570Z,11.29
2018-10-01T10:39:17.659Z,11.36
2018-10-01T10:40:25.658Z,11.35
2018-10-01T10:41:33.720Z,11.39
2018-10-01T10:42:41.790Z,11.47
2018-10-01T10:43:49.855Z,11.40
2018-10-01T10:44:57.911Z,11.43
2018-10-01T10:46:05.960Z,11.55
2018-10-01T10:47:14.020Z,11.55
2018-10-01T10:48:22.124Z,11.58
2018-10-01T10:49:30.182Z,11.58
2018-10-01T10:50:38.309Z,11.54
2018-10-01T10:51:46.317Z,11.51
2018-10-01T10:52:54.370Z,11.51
2018-10-01T10:54:02.474Z,11.49
2018-10-01T10:55:10.524Z,11.62
2018-10-01T10:56:18.569Z,11.57
2018-10-01T10:57:26.632Z,11.51
2018-10-01T10:58:34.709Z,11.47
2018-10-01T10:59:42.772Z,11.49
2018-10-01T11:00:50.852Z,11.49
2018-10-01T11:01:58.928Z,11.42
2018-10-01T11:03:06.977Z,11.35
2018-10-01T11:04:15.041Z,11.39
2018-10-01T11:05:23.084Z,11.42
2018-10-01T11:06:31.180Z,11.37
2018-10-01T11:07:39.246Z,11.33
2018-10-01T11:08:47.307Z,11.28
2018-10-01T11:09:55.388Z,11.19
2018-10-01T11:11:03.443Z,11.22
2018-10-01T11:12:11.508Z,11.14
2018-10-01T11:13:19.564Z,11.15
2018-10-01T11:14:27.733Z,11.15
2018-10-01T11:15:35.717Z,11.15
2018-10-01T11:16:43.755Z,11.21
2018-10-01T11:17:51.874Z,11.22
2018-10-01T11:19:00.100Z,11.22
2018-10-01T11:20:08.000Z,11.25
2018-10-01T11:21:16.113Z,11.24
2018-10-01T11:22:24.089Z,11.22
2018-10-01T11:23:32.179Z,11.21
2018-10-01T11:24:40.223Z,11.19
2018-10-01T11:25:48.286Z,11.10
2018-10-01T11:26:56.413Z,11.10
2018-10-01T11:28:04.409Z,11.17
2018-10-01T11:29:12.469Z,11.22
2018-10-01T11:30:20.555Z,11.21
2018-10-01T11:31:28.671Z,11.21
2018-10-01T11:32:36.669Z,11.22
2018-10-01T11:33:44.890Z,11.07
2018-10-01T11:34:52.945Z,11.09
2018-10-01T11:36:00.881Z,11.14
2018-10-01T11:37:08.959Z,10.97
2018-10-01T11:38:16.994Z,10.94
2018-10-01T11:39:25.077Z,10.91
2018-10-01T11:40:33.167Z,10.81
2018-10-01T11:41:41.191Z,10.73
2018-10-01T11:42:49.277Z,10.73
2018-10-01T11:43:57.343Z,10.66
2018-10-01T11:45:05.438Z,10.74
2018-10-01T11:46:13.454Z,10.78
2018-10-01T11:47:21.533Z,10.67
2018-10-01T11:48:29.604Z,10.67
2018-10-01T11:49:37.664Z,10.68
2018-10-01T11:50:45.722Z,10.71
2018-10-01T11:51:53.795Z,10.66
2018-10-01T11:53:01.858Z,10.68
2018-10-01T11:54:09.957Z,10.71
2018-10-01T11:55:22.029Z,10.63
2018-10-01T11:56:28.675Z,10.85
2018-10-01T11:57:36.808Z,10.84
2018-10-01T11:58:44.794Z,10.78
2018-10-01T11:59:52.894Z,10.89
2018-10-01T12:01:00.932Z,10.84
2018-10-01T12:02:09.002Z,10.84
2018-10-01T12:03:17.160Z,10.91
2018-10-01T12:04:25.117Z,10.84
2018-10-01T12:05:33.170Z,10.89
2018-10-01T12:06:41.298Z,10.92
2018-10-01T12:07:49.332Z,10.82
2018-10-01T12:08:57.393Z,10.84
2018-10-01T12:10:05.455Z,10.97
2018-10-01T12:11:13.500Z,10.91
2018-10-01T12:12:21.593Z,10.97
2018-10-01T12:13:29.667Z,11.03
2018-10-01T12:14:38.318Z,11.06
2018-10-01T12:15:45.940Z,11.10
2018-10-01T12:16:56.461Z,11.09
2018-10-01T12:20:27.157Z,10.89
2018-10-01T12:21:35.312Z,10.91
2018-10-01T12:22:43.231Z,10.97
2018-10-01T12:23:51.357Z,10.97
2018-10-01T12:24:59.385Z,10.91
2018-10-01T12:26:07.443Z,10.91
2018-10-01T12:27:15.565Z,10.94
2018-10-01T12:28:23.568Z,10.96
2018-10-01T12:29:32.774Z,10.99
2018-10-01T12:30:39.735Z,11.04
2018-10-01T12:31:47.775Z,11.06
2018-10-01T12:32:55.855Z,11.10
2018-10-01T12:34:03.892Z,11.10
2018-10-01T12:35:12.093Z,11.09
2018-10-01T12:36:20.038Z,11.14
2018-10-01T12:37:29.162Z,11.15
2018-10-01T12:38:47.062Z,11.19
2018-10-01T12:39:44.340Z,11.09
2018-10-01T12:40:52.286Z,11.07
2018-10-01T12:42:00.350Z,11.09
2018-10-01T12:43:08.425Z,11.00
2018-10-01T12:44:16.512Z,11.09
2018-10-01T12:45:24.599Z,11.11
2018-10-01T12:46:32.625Z,11.07
2018-10-01T12:47:40.711Z,10.99
2018-10-01T12:48:48.760Z,11.04
2018-10-01T12:49:56.813Z,11.00
2018-10-01T12:51:04.968Z,10.82
2018-10-01T12:52:12.961Z,10.78
2018-10-01T12:53:21.040Z,10.76
2018-10-01T12:54:29.083Z,10.68
2018-10-01T12:55:37.143Z,10.76
2018-10-01T12:56:45.223Z,10.68
2018-10-01T12:57:53.261Z,10.60
2018-10-01T12:59:05.455Z,10.61
2018-10-01T13:00:15.524Z,10.61
2018-10-01T13:01:19.485Z,10.61
2018-10-01T13:02:27.547Z,10.64
2018-10-01T13:03:35.629Z,10.68
2018-10-01T13:04:44.684Z,10.70
2018-10-01T13:05:52.741Z,10.73
2018-10-01T13:07:00.799Z,10.66
2018-10-01T13:08:08.869Z,10.74
2018-10-01T13:09:16.956Z,10.78
2018-10-01T13:10:25.013Z,10.74
2018-10-01T13:11:33.061Z,10.64
2018-10-01T13:12:41.183Z,10.70
2018-10-01T13:13:49.185Z,10.68
2018-10-01T13:14:57.263Z,10.71
2018-10-01T13:16:05.338Z,10.68
2018-10-01T13:17:13.370Z,10.73
2018-10-01T13:18:21.550Z,10.64
2018-10-01T13:19:29.534Z,10.76
2018-10-01T13:20:37.586Z,10.70
2018-10-01T13:21:45.658Z,10.68
2018-10-01T13:22:53.726Z,10.67
2018-10-01T13:24:01.837Z,10.67
2018-10-01T13:25:09.876Z,10.85
2018-10-01T13:26:17.948Z,10.78
2018-10-01T13:27:26.001Z,10.76
2018-10-01T13:28:34.057Z,10.73
2018-10-01T13:29:42.119Z,10.78
2018-10-01T13:30:50.252Z,10.79
2018-10-01T13:31:58.324Z,10.82
2018-10-01T13:33:06.392Z,10.89
2018-10-01T13:34:14.379Z,10.97
2018-10-01T13:35:22.461Z,10.97
2018-10-01T13:36:30.552Z,11.00
2018-10-01T13:37:38.625Z,11.11
2018-10-01T13:38:46.670Z,11.04
2018-10-01T13:39:54.709Z,11.07
2018-10-01T13:41:02.759Z,11.22
2018-10-01T13:42:10.858Z,11.22
2018-10-01T13:43:18.937Z,11.33
2018-10-01T13:44:27.069Z,11.27
2018-10-01T13:45:35.036Z,11.33
2018-10-01T13:46:43.100Z,11.47
2018-10-01T13:47:51.184Z,11.35
2018-10-01T13:48:59.230Z,11.46
2018-10-01T13:50:07.309Z,11.42
2018-10-01T13:51:15.376Z,11.44
2018-10-01T13:52:23.445Z,11.57
2018-10-01T13:53:31.518Z,11.62
2018-10-01T13:54:39.988Z,11.58
2018-10-01T13:55:47.630Z,11.62
2018-10-01T13:56:55.719Z,11.58
2018-10-01T13:58:03.808Z,11.61
2018-10-01T13:59:11.856Z,11.64
2018-10-01T14:00:19.919Z,11.65
2018-10-01T14:01:28.077Z,11.69
2018-10-01T14:02:36.042Z,11.69
2018-10-01T14:03:44.089Z,11.75
2018-10-01T14:04:52.170Z,11.75
2018-10-01T14:06:00.232Z,11.76
2018-10-01T14:07:08.374Z,11.73
2018-10-01T14:08:16.371Z,11.76
2018-10-01T14:09:24.444Z,11.67
2018-10-01T14:10:32.481Z,11.75
2018-10-01T14:11:40.578Z,11.73
2018-10-01T14:12:48.636Z,11.78
2018-10-01T14:13:56.881Z,11.73
2018-10-01T14:15:04.773Z,11.75
2018-10-01T14:16:12.864Z,11.72
2018-10-01T14:17:20.886Z,11.72
2018-10-01T14:18:28.970Z,11.67
2018-10-01T14:19:37.108Z,11.57
2018-10-01T14:20:45.097Z,11.58
2018-10-01T14:21:53.192Z,11.55
2018-10-01T14:23:01.258Z,11.58
2018-10-01T14:24:09.302Z,11.54
2018-10-01T14:25:17.405Z,11.58
2018-10-01T14:26:25.435Z,11.57
2018-10-01T14:27:33.502Z,11.60
2018-10-01T14:28:41.653Z,11.65
2018-10-01T14:29:49.655Z,11.69
2018-10-01T14:30:57.724Z,11.69
2018-10-01T14:32:05.753Z,11.67
2018-10-01T14:33:13.810Z,11.73
2018-10-01T14:34:21.888Z,11.65
2018-10-01T14:35:29.966Z,11.69
2018-10-01T14:36:38.104Z,11.72
2018-10-01T14:37:46.082Z,11.76
2018-10-01T14:38:54.149Z,11.75
2018-10-01T14:40:02.237Z,11.67
2018-10-01T14:41:10.277Z,11.62
2018-10-01T14:42:18.426Z,11.70
2018-10-01T14:43:26.427Z,11.72
2018-10-01T14:44:34.502Z,11.79
2018-10-01T14:45:42.552Z,11.76
2018-10-01T14:46:50.615Z,11.78